Alma, Colorado
Current Conditions -  °F | °C
As of 6:35 PM on Friday 28 Nov 2014 (Local Time) from KCCU Reporting Station
Clear Clear  
Wind Chill: -6°   Ceiling: Unl
Heat Index:   Visibility: 10mi
Dew Point: -18°   Wind: 23mph
Humidity: 23%   Direction: 260°W
Pressure: 30.19"   Gusts: 31mph
Location:  39.28°N, 106.06°W
Report Text: KCCU 290135Z AUTO 26020G27KT 10SM CLR 01/M18 A3019 RMK AO2
Loading
Personal Weather Stations






























Interactive Weather Map New forecast layout! Learn more

10-Day Weather Forecast

Advertisements
Track Severe Weather on mobile